Lela Franco — WDI2504 — position and weather

sailwx.info

Track history (hours):
 
Tides and Currents Weather Stations Pressure Air Temp Water Temp Dewpoint Dewpoint Depression Visibility Wind Speed Wind Dir Waves Ship Positions

Lela Franco

Owner: Harley Marine Services, Inc, Seattle, WA. More information available from US FCC via Universal Licensing System and Coast Guard Vessel Documentation Center.

Last reported at 2018-Feb-19 11:30 UTC. Time now 2018-Feb-19 11:50 UTC.
Position N 33°44' W 118°17'.

Length 18 m; draft 3 m.

Type: Towing. MMSI: 366926730.

Date/timePositionNaut miles runAvg speedWind from/ knotsBaromVisibWave heightAir tempDewpointWater temp
2018-Feb-19 11:30N 33°44' W 118°17'2 4.8
2018-Feb-19 11:00N 33°43' W 118°14'2 4.8
2018-Feb-19 10:29N 33°44' W 118°12'0 0.0
2018-Feb-19 09:56N 33°44' W 118°12'0 0.0
2018-Feb-19 09:29N 33°44' W 118°12'0 0.0
2018-Feb-19 09:00N 33°44' W 118°12'0 0.0
2018-Feb-19 08:28N 33°44' W 118°12'0 0.0
2018-Feb-19 07:59N 33°44' W 118°12'1 0.9
2018-Feb-19 07:00N 33°45' W 118°13'1 2.1
2018-Feb-19 06:21N 33°43' W 118°13'2 6.6
2018-Feb-19 06:01N 33°43' W 118°15'1 2.0
2018-Feb-19 05:30N 33°44' W 118°16'0 0.0
2018-Feb-19 05:00N 33°44' W 118°16'0 0.0
2018-Feb-19 04:30N 33°44' W 118°16'0 0.0
2018-Feb-19 04:00N 33°44' W 118°16'1 2.1
2018-Feb-19 03:30N 33°43' W 118°15'3 6.4
2018-Feb-19 03:00N 33°46' W 118°13'1 1.6
2018-Feb-19 02:29N 33°46' W 118°13'1 1.7
2018-Feb-19 02:00N 33°46' W 118°13'3 5.1
2018-Feb-19 01:30N 33°43' W 118°11'0 0.5
2018-Feb-19 01:00N 33°44' W 118°12'1 1.2
2018-Feb-19 00:30N 33°44' W 118°12'1 2.1
2018-Feb-19 00:00N 33°45' W 118°13'0 0.0
2018-Feb-18 23:30N 33°45' W 118°13'0 0.4
2018-Feb-18 23:00N 33°45' W 118°13'2 3.2
2018-Feb-18 22:30N 33°43' W 118°14'2 3.7
2018-Feb-18 22:00N 33°44' W 118°16'0 0.0
2018-Feb-18 21:30N 33°44' W 118°16'0 0.0
2018-Feb-18 21:00N 33°44' W 118°16'0 0.4
2018-Feb-18 20:30N 33°44' W 118°16'3 7.0
2018-Feb-18 20:00N 33°44' W 118°12'2 4.1
2018-Feb-18 19:30N 33°44' W 118°09'0 0.1
2018-Feb-18 19:00N 33°44' W 118°09'3 5.6
2018-Feb-18 18:30N 33°45' W 118°12'2 3.7
2018-Feb-18 17:57N 33°43' W 118°14'2 3.9
2018-Feb-18 17:30N 33°44' W 118°16'0 0.0
2018-Feb-18 17:00N 33°44' W 118°16'0 0.0
2018-Feb-18 16:30N 33°44' W 118°16'0 0.2
2018-Feb-18 16:00N 33°44' W 118°16'1 1.5
2018-Feb-18 15:30N 33°43' W 118°16'1 2.3
2018-Feb-18 15:00N 33°43' W 118°14'1 1.5
2018-Feb-18 14:30N 33°43' W 118°14'0 0.0
2018-Feb-18 13:52N 33°43' W 118°14'0 0.1
2018-Feb-18 13:25N 33°43' W 118°14'1 2.9
2018-Feb-18 12:58N 33°44' W 118°13'2 3.7
2018-Feb-18 12:29N 33°46' W 118°14'0 0.1
2018-Feb-18 12:00N 33°46' W 118°14'0 0.0
2018-Feb-18 11:28N 33°46' W 118°14'0 0.0
2018-Feb-18 11:00N 33°46' W 118°14'0 0.0
2018-Feb-18 10:30N 33°46' W 118°14'1 2.8
2018-Feb-18 10:00N 33°45' W 118°13'2 2.2
2018-Feb-18 09:11N 33°44' W 118°11'1 3.1
2018-Feb-18 09:00N 33°44' W 118°12'0 0.0
2018-Feb-18 08:30N 33°44' W 118°12'0 0.0
2018-Feb-18 08:00N 33°44' W 118°12'0 0.0
2018-Feb-18 07:30N 33°44' W 118°12'0 0.0
2018-Feb-18 07:00N 33°44' W 118°12'0 0.0
2018-Feb-18 06:29N 33°44' W 118°12'0 0.0
2018-Feb-18 05:58N 33°44' W 118°12'3 5.5
2018-Feb-18 05:23N 33°43' W 118°15'1 3.1
2018-Feb-18 05:00N 33°44' W 118°16'0 0.0
2018-Feb-18 04:30N 33°44' W 118°16'1 1.5
2018-Feb-18 04:00N 33°43' W 118°16'2 4.6
2018-Feb-18 03:30N 33°46' W 118°16'0 0.0
2018-Feb-18 03:00N 33°46' W 118°16'0 0.1
2018-Feb-18 02:30N 33°45' W 118°16'1 1.1
2018-Feb-18 02:00N 33°45' W 118°16'2 4.9
2018-Feb-18 01:30N 33°43' W 118°15'0 0.6
2018-Feb-18 01:00N 33°43' W 118°15'1 2.8
2018-Feb-18 00:30N 33°44' W 118°16'0 0.0
2018-Feb-18 00:00N 33°44' W 118°16'0 0.0
2018-Feb-17 23:30N 33°44' W 118°16'0 0.0
2018-Feb-17 23:00N 33°44' W 118°16'1 2.0
2018-Feb-17 22:30N 33°45' W 118°17'1 2.0
2018-Feb-17 22:01N 33°46' W 118°16'2 3.6
2018-Feb-17 21:30N 33°46' W 118°14'2 4.6
2018-Feb-17 21:00N 33°44' W 118°13'3 5.2
2018-Feb-17 20:30N 33°43' W 118°16'2 3.8
2018-Feb-17 20:00N 33°45' W 118°17'0 0.0
2018-Feb-17 19:30N 33°45' W 118°17'1 1.9
2018-Feb-17 19:00N 33°44' W 118°16'0 0.0
2018-Feb-17 18:30N 33°44' W 118°16'0 0.0
2018-Feb-17 18:00N 33°44' W 118°16'0 0.1
2018-Feb-17 17:30N 33°44' W 118°16'1 1.2
2018-Feb-17 17:00N 33°44' W 118°16'0 0.0
2018-Feb-17 16:30N 33°44' W 118°16'0 0.0
2018-Feb-17 16:00N 33°44' W 118°16'0 0.0
2018-Feb-17 15:30N 33°44' W 118°16'0 0.0
2018-Feb-17 15:00N 33°44' W 118°16'0 0.0
2018-Feb-17 14:30N 33°44' W 118°16'0 0.0
2018-Feb-17 14:00N 33°44' W 118°16'0 0.0
2018-Feb-17 13:30N 33°44' W 118°16'2 3.1
2018-Feb-17 12:49N 33°44' W 118°13'1 4.2
2018-Feb-17 12:30N 33°46' W 118°13'0 0.8
2018-Feb-17 11:55N 33°46' W 118°13'0 0.4
2018-Feb-17 11:28N 33°46' W 118°13'0 0.0
2018-Feb-17 10:53N 33°46' W 118°13'0 0.0
2018-Feb-17 10:30N 33°46' W 118°13'0 0.0
2018-Feb-17 10:00N 33°46' W 118°13'0 0.0
2018-Feb-17 09:30N 33°46' W 118°13'0 0.0
2018-Feb-17 09:00N 33°46' W 118°13'0 0.0
2018-Feb-17 08:30N 33°46' W 118°13'0 0.0
2018-Feb-17 06:57N 33°46' W 118°13'3 6.4
2018-Feb-17 06:30N 33°45' W 118°16'1 1.6
2018-Feb-17 06:00N 33°44' W 118°17'1 2.0
2018-Feb-17 05:30N 33°44' W 118°16'0 0.1
2018-Feb-17 05:00N 33°44' W 118°16'0 0.0
2018-Feb-17 04:30N 33°44' W 118°16'0 0.0
2018-Feb-17 03:58N 33°44' W 118°16'0 0.0
2018-Feb-17 03:30N 33°44' W 118°16'2 4.2
2018-Feb-17 03:00N 33°46' W 118°16'3 5.0
2018-Feb-17 02:29N 33°43' W 118°16'1 1.3
2018-Feb-17 02:00N 33°44' W 118°16'0 0.0
2018-Feb-17 01:30N 33°44' W 118°16'0 0.0
2018-Feb-17 01:00N 33°44' W 118°16'0 0.0
2018-Feb-17 00:30N 33°44' W 118°16'0 0.0
2018-Feb-17 00:00N 33°44' W 118°16'0 0.0
2018-Feb-16 23:30N 33°44' W 118°16'0 0.0
2018-Feb-16 23:00N 33°44' W 118°16'2 3.4
2018-Feb-16 22:30N 33°43' W 118°14'2 4.6
2018-Feb-16 22:00N 33°45' W 118°12'3 6.2
2018-Feb-16 21:30N 33°43' W 118°15'1 2.2
2018-Feb-16 21:00N 33°44' W 118°16'0 0.0
2018-Feb-16 20:30N 33°44' W 118°16'0 0.0
2018-Feb-16 20:00N 33°44' W 118°16'0 0.0
2018-Feb-16 19:30N 33°44' W 118°16'0 0.0
2018-Feb-16 19:00N 33°44' W 118°16'0 0.0
2018-Feb-16 18:30N 33°44' W 118°16'0 0.0
2018-Feb-16 18:00N 33°44' W 118°16'0 0.0
2018-Feb-16 17:30N 33°44' W 118°16'0 0.0
2018-Feb-16 17:00N 33°44' W 118°16'0 0.0
2018-Feb-16 16:30N 33°44' W 118°16'0 0.0
2018-Feb-16 16:00N 33°44' W 118°16'0 0.0
2018-Feb-16 15:30N 33°44' W 118°16'0 0.0
2018-Feb-16 15:00N 33°44' W 118°16'0 0.4
2018-Feb-16 14:30N 33°44' W 118°16'1 1.4
2018-Feb-16 14:00N 33°44' W 118°15'1 1.5
2018-Feb-16 13:30N 33°44' W 118°16'0 0.7
2018-Feb-16 12:58N 33°44' W 118°15'0 0.6
2018-Feb-16 12:30N 33°44' W 118°16'0 0.0
2018-Feb-16 11:59N 33°44' W 118°16'0 0.0
2018-Feb-16 11:30N 33°44' W 118°16'0 0.0
2018-Feb-16 11:00N 33°44' W 118°16'0 0.6
2018-Feb-16 10:30N 33°44' W 118°16'3 6.3
2018-Feb-16 10:00N 33°44' W 118°12'1 0.9
2018-Feb-16 09:07N 33°44' W 118°12'2 8.9
2018-Feb-16 08:55N 33°43' W 118°14'3 6.3
2018-Feb-16 08:30N 33°45' W 118°17'1 2.5
2018-Feb-16 08:00N 33°46' W 118°15'2 3.5
2018-Feb-16 07:30N 33°44' W 118°16'0 0.0
2018-Feb-16 07:00N 33°44' W 118°16'0 0.0
2018-Feb-16 06:30N 33°44' W 118°16'0 0.0
2018-Feb-16 06:00N 33°44' W 118°16'0 0.0
2018-Feb-16 05:30N 33°44' W 118°16'0 0.0
2018-Feb-16 05:00N 33°44' W 118°16'0 0.0
2018-Feb-16 04:30N 33°44' W 118°16'0 0.0
2018-Feb-16 04:00N 33°44' W 118°16'0 0.0
2018-Feb-16 03:30N 33°44' W 118°16'1 1.3
2018-Feb-16 02:53N 33°43' W 118°17'1 2.0
2018-Feb-16 02:30N 33°44' W 118°16'0 0.1
2018-Feb-16 02:00N 33°44' W 118°16'0 0.0
2018-Feb-16 01:30N 33°44' W 118°16'0 0.0
2018-Feb-16 01:00N 33°44' W 118°16'0 0.4
2018-Feb-16 00:30N 33°44' W 118°16'162.9
2018-Feb-16 00:29N 33°45' W 118°16'3 7.2
2018-Feb-16 00:00N 33°45' W 118°12'36114.5
2018-Feb-16 00:00N 33°43' W 118°16'3 6.6
2018-Feb-15 23:30N 33°45' W 118°12'45321.6
2018-Feb-15 23:30N 33°41' W 118°16'4 8.9
2018-Feb-15 23:00N 33°45' W 118°13'82508.1
2018-Feb-15 23:00N 33°39' W 118°20'611.7
2018-Feb-15 22:30N 33°43' W 118°15'10211.0
2018-Feb-15 22:28N 33°36' W 118°24'1022.1
2018-Feb-15 22:00N 33°44' W 118°16'1576.8
2018-Feb-15 21:49N 33°33' W 118°29'2 7.9
2018-Feb-15 21:30N 33°32' W 118°31'192513.7
2018-Feb-15 21:30N 33°44' W 118°13'1 2.6
2018-Feb-15 21:00N 33°45' W 118°13'2428637.8
2018-Feb-15 21:00N 33°30' W 118°35'2142.0
2018-Feb-15 20:30N 33°43' W 118°15'2320850.7
2018-Feb-15 20:30N 33°27' W 118°36'2346.3
2018-Feb-15 20:00N 33°43' W 118°15'2 4.9
2018-Feb-15 19:30N 33°44' W 118°13'3 5.3
2018-Feb-15 19:00N 33°44' W 118°16'2 3.7
2018-Feb-15 18:30N 33°46' W 118°15'2 3.5
2018-Feb-15 18:00N 33°46' W 118°13'3 6.5
2018-Feb-15 17:30N 33°43' W 118°16'1 1.4
2018-Feb-15 17:00N 33°44' W 118°16'23225.7
2018-Feb-15 16:54N 33°26' W 118°33'2359.2
2018-Feb-15 16:30N 33°44' W 118°16'241008.3
2018-Feb-15 16:29N 33°28' W 118°36'2449.4
2018-Feb-15 16:00N 33°44' W 118°16'2118777.2
2018-Feb-15 16:00N 33°30' W 118°35'2141.8
2018-Feb-15 15:30N 33°44' W 118°16'1 1.8
2018-Feb-15 15:00N 33°43' W 118°16'922.3
2018-Feb-15 14:35N 33°37' W 118°24'13167.0
2018-Feb-15 14:30N 33°45' W 118°13'0 0.1
2018-Feb-15 14:00N 33°45' W 118°13'512.3
2018-Feb-15 13:35N 33°41' W 118°16'1 7.7
2018-Feb-15 13:30N 33°41' W 118°16'4115.5
2018-Feb-15 13:28N 33°44' W 118°12'4 8.4
2018-Feb-15 13:00N 33°43' W 118°16'3407.0
2018-Feb-15 12:59N 33°45' W 118°13'0 0.1
2018-Feb-15 12:30N 33°45' W 118°13'3756.9
2018-Feb-15 12:30N 33°45' W 118°16'3 5.9
2018-Feb-15 12:00N 33°45' W 118°13'0 0.0
2018-Feb-15 11:30N 33°45' W 118°13'0 0.0
2018-Feb-15 11:00N 33°45' W 118°13'0 0.0
2018-Feb-15 10:30N 33°45' W 118°13'0 0.0
2018-Feb-15 10:00N 33°45' W 118°13'1 0.7
2018-Feb-15 09:02N 33°44' W 118°12'1 4.2
2018-Feb-15 08:52N 33°44' W 118°12'0 0.7
2018-Feb-15 08:28N 33°44' W 118°12'3 6.7
2018-Feb-15 08:00N 33°44' W 118°16'2 3.3
2018-Feb-15 07:30N 33°43' W 118°14'2 2.9
2018-Feb-15 06:47N 33°45' W 118°12'3 9.6
2018-Feb-15 06:29N 33°43' W 118°15'1 2.4
2018-Feb-15 06:00N 33°44' W 118°16'0 0.0
2018-Feb-15 05:30N 33°44' W 118°16'0 0.0
2018-Feb-15 05:00N 33°44' W 118°16'0 0.0
2018-Feb-15 04:30N 33°44' W 118°16'0 0.2
2018-Feb-15 04:00N 33°44' W 118°16'0 0.5
2018-Feb-15 03:30N 33°44' W 118°15'0 0.0
2018-Feb-15 03:00N 33°44' W 118°15'0 0.5
2018-Feb-15 02:30N 33°44' W 118°16'0 0.0
2018-Feb-15 02:00N 33°44' W 118°16'0 0.0
2018-Feb-15 01:30N 33°44' W 118°16'2 3.7
2018-Feb-15 01:00N 33°43' W 118°13'2 3.4
2018-Feb-15 00:30N 33°45' W 118°13'3 5.7
2018-Feb-15 00:00N 33°44' W 118°16'0 0.5
2018-Feb-14 23:30N 33°44' W 118°16'0 0.9
2018-Feb-14 23:00N 33°44' W 118°15'1 1.2
2018-Feb-14 22:30N 33°43' W 118°16'2 4.6
2018-Feb-14 22:00N 33°42' W 118°14'3 5.2
2018-Feb-14 21:30N 33°44' W 118°16'0 0.0
2018-Feb-14 21:00N 33°44' W 118°16'0 0.0
2018-Feb-14 20:30N 33°44' W 118°16'0 0.0
2018-Feb-14 20:00N 33°44' W 118°16'0 0.0
2018-Feb-14 19:30N 33°44' W 118°16'0 0.0
2018-Feb-14 19:00N 33°44' W 118°16'0 0.0
2018-Feb-14 18:30N 33°44' W 118°16'0 0.0
2018-Feb-14 18:00N 33°44' W 118°16'0 0.0
2018-Feb-14 17:30N 33°44' W 118°16'1 1.2
2018-Feb-14 17:00N 33°43' W 118°16'3 5.1
2018-Feb-14 16:30N 33°46' W 118°16'0 0.0
2018-Feb-14 16:00N 33°46' W 118°16'0 0.7
2018-Feb-14 15:30N 33°45' W 118°16'2 3.7
2018-Feb-14 15:00N 33°44' W 118°16'3 5.4
2018-Feb-14 14:26N 33°42' W 118°13'1 1.8
2018-Feb-14 13:59N 33°42' W 118°12'2 3.1
2018-Feb-14 13:21N 33°43' W 118°15'2 4.7
2018-Feb-14 12:56N 33°44' W 118°13'2 4.7
2018-Feb-14 12:31N 33°46' W 118°13'0 0.4
2018-Feb-14 12:00N 33°46' W 118°13'0 0.6
2018-Feb-14 11:30N 33°46' W 118°13'1 2.0
2018-Feb-14 11:00N 33°45' W 118°13'0 0.0
2018-Feb-14 10:30N 33°45' W 118°13'0 0.0
2018-Feb-14 10:00N 33°45' W 118°13'0 0.0
2018-Feb-14 09:30N 33°45' W 118°13'0 0.0
2018-Feb-14 09:00N 33°45' W 118°13'0 0.0
2018-Feb-14 08:30N 33°45' W 118°13'0 0.0
2018-Feb-14 08:00N 33°45' W 118°13'1 0.3
2018-Feb-14 06:20N 33°45' W 118°12'3 8.8
2018-Feb-14 06:00N 33°43' W 118°15'1 1.9
2018-Feb-14 05:30N 33°44' W 118°15'0 0.5
2018-Feb-14 05:00N 33°44' W 118°16'0 0.0
2018-Feb-14 04:30N 33°44' W 118°16'0 0.0
2018-Feb-14 04:00N 33°44' W 118°16'1 1.2
2018-Feb-14 03:30N 33°43' W 118°16'3 5.9
2018-Feb-14 03:01N 33°44' W 118°12'0 0.9
2018-Feb-14 02:30N 33°45' W 118°12'1 1.2
2018-Feb-14 01:45N 33°44' W 118°12'0 0.2
2018-Feb-14 01:30N 33°44' W 118°12'0 0.1
2018-Feb-14 01:00N 33°44' W 118°12'0 0.0
2018-Feb-14 00:30N 33°44' W 118°12'1 1.7
2018-Feb-14 00:00N 33°44' W 118°12'3 5.2
2018-Feb-13 23:30N 33°46' W 118°15'2 4.9
2018-Feb-13 23:11N 33°45' W 118°16'1 4.3
2018-Feb-13 23:00N 33°45' W 118°16'1103.8
2018-Feb-13 22:59N 33°45' W 118°16'2 4.2
2018-Feb-13 22:31N 33°43' W 118°16'13242.3
2018-Feb-13 22:30N 33°44' W 118°16'2 3.0
2018-Feb-13 22:00N 33°43' W 118°15'31646.5
2018-Feb-13 22:00N 33°40' W 118°15'4 7.7
2018-Feb-13 21:30N 33°36' W 118°16'87252.3
2018-Feb-13 21:30N 33°44' W 118°16'0 0.0
2018-Feb-13 21:00N 33°44' W 118°16'0 0.0
2018-Feb-13 20:30N 33°44' W 118°16'0 0.0
2018-Feb-13 20:00N 33°44' W 118°16'0 0.0
2018-Feb-13 19:29N 33°44' W 118°16'0 0.0
2018-Feb-13 19:00N 33°44' W 118°16'0 0.0
2018-Feb-13 18:30N 33°44' W 118°16'0 0.0
2018-Feb-13 18:00N 33°44' W 118°16'0 0.0
2018-Feb-13 17:30N 33°44' W 118°16'0 0.0
2018-Feb-13 17:00N 33°44' W 118°16'0 0.5
2018-Feb-13 16:30N 33°44' W 118°15'1 1.2
2018-Feb-13 16:00N 33°43' W 118°16'1 2.8
2018-Feb-13 15:30N 33°45' W 118°16'2 4.6
2018-Feb-13 15:00N 33°43' W 118°15'3 5.5
2018-Feb-13 14:28N 33°45' W 118°12'1 1.8
2018-Feb-13 14:00N 33°44' W 118°12'1 1.2
2018-Feb-13 13:30N 33°44' W 118°12'617.6
2018-Feb-13 13:10N 33°39' W 118°15'530.3
2018-Feb-13 13:00N 33°43' W 118°16'368.8
2018-Feb-13 12:58N 33°40' W 118°15'4 8.2
2018-Feb-13 12:30N 33°44' W 118°15'1691.1
2018-Feb-13 12:30N 33°43' W 118°16'2 3.6
2018-Feb-13 12:00N 33°45' W 118°17'2233.5
2018-Feb-13 12:00N 33°43' W 118°15'3 5.4
2018-Feb-13 11:30N 33°45' W 118°16'047.4
2018-Feb-13 11:30N 33°45' W 118°16'0 0.0
2018-Feb-13 11:00N 33°45' W 118°16'0 0.0
2018-Feb-13 10:30N 33°45' W 118°16'1 1.3
2018-Feb-13 09:59N 33°44' W 118°16'1 1.3
2018-Feb-13 09:30N 33°44' W 118°16'0 0.0
2018-Feb-13 09:00N 33°44' W 118°16'0 0.0
2018-Feb-13 08:30N 33°44' W 118°16'0 0.0
2018-Feb-13 08:00N 33°44' W 118°16'0 0.0
2018-Feb-13 07:30N 33°44' W 118°16'0 0.0
2018-Feb-13 06:56N 33°44' W 118°16'0 0.0
2018-Feb-13 06:30N 33°44' W 118°16'0 0.0
2018-Feb-13 06:00N 33°44' W 118°16'0 0.0
2018-Feb-13 05:29N 33°44' W 118°16'0 0.0
2018-Feb-13 05:00N 33°44' W 118°16'0 0.0
2018-Feb-13 04:30N 33°44' W 118°16'0 0.0
2018-Feb-13 04:01N 33°44' W 118°16'1 1.1
2018-Feb-13 03:30N 33°44' W 118°16'2 4.6
2018-Feb-13 03:00N 33°43' W 118°14'0 0.1
2018-Feb-13 02:15N 33°43' W 118°14'0 0.9
2018-Feb-13 01:57N 33°44' W 118°13'2 3.4
2018-Feb-13 01:30N 33°45' W 118°13'2 4.4
2018-Feb-13 01:00N 33°44' W 118°10'0 0.0
2018-Feb-13 00:30N 33°44' W 118°10'1 2.5
2018-Feb-13 00:00N 33°44' W 118°12'0 0.0
2018-Feb-12 23:30N 33°44' W 118°12'0 0.0
2018-Feb-12 23:00N 33°44' W 118°12'0 0.0
2018-Feb-12 22:30N 33°44' W 118°12'0 0.5
2018-Feb-12 22:00N 33°44' W 118°11'0 0.1
2018-Feb-12 21:30N 33°44' W 118°11'0 0.0
2018-Feb-12 21:00N 33°44' W 118°11'2 4.1
2018-Feb-12 20:30N 33°45' W 118°14'1 1.2
2018-Feb-12 20:00N 33°45' W 118°14'1 2.6
2018-Feb-12 19:30N 33°44' W 118°13'3 5.3
2018-Feb-12 19:00N 33°44' W 118°16'2 4.4
2018-Feb-12 18:30N 33°46' W 118°16'3 5.2
2018-Feb-12 18:00N 33°43' W 118°16'1 1.1
2018-Feb-12 17:30N 33°44' W 118°16'0 0.0
2018-Feb-12 17:00N 33°44' W 118°16'0 0.0
2018-Feb-12 16:30N 33°44' W 118°16'0 0.0
2018-Feb-12 16:00N 33°44' W 118°16'1 2.0
2018-Feb-12 15:30N 33°43' W 118°15'4 7.3
2018-Feb-12 15:00N 33°46' W 118°13'0 0.1
2018-Feb-12 14:30N 33°46' W 118°13'2 3.2
2018-Feb-12 13:59N 33°44' W 118°13'1 2.1
2018-Feb-12 13:30N 33°43' W 118°13'3 5.4
2018-Feb-12 13:00N 33°44' W 118°16'0 0.0
2018-Feb-12 12:30N 33°44' W 118°16'0 0.0
2018-Feb-12 12:00N 33°44' W 118°16'0 0.0
2018-Feb-12 11:30N 33°44' W 118°16'0 0.0
2018-Feb-12 11:00N 33°44' W 118°16'0 0.0
2018-Feb-12 10:30N 33°44' W 118°16'0 0.0
2018-Feb-12 10:00N 33°44' W 118°16'0 0.0
2018-Feb-12 09:30N 33°44' W 118°16'0 0.0
2018-Feb-12 09:00N 33°44' W 118°16'0 0.0
2018-Feb-12 08:30N 33°44' W 118°16'0 0.0
2018-Feb-12 08:00N 33°44' W 118°16'0 0.4
2018-Feb-12 07:30N 33°44' W 118°16'1 2.5
2018-Feb-12 06:58N 33°43' W 118°14'1 3.3
2018-Feb-12 06:30N 33°44' W 118°16'0 0.0
2018-Feb-12 06:00N 33°44' W 118°16'0 0.0
2018-Feb-12 05:30N 33°44' W 118°16'0 0.0
2018-Feb-12 05:00N 33°44' W 118°16'0 0.0
2018-Feb-12 04:30N 33°44' W 118°16'0 0.0
2018-Feb-12 04:00N 33°44' W 118°16'0 0.6
2018-Feb-12 03:30N 33°44' W 118°16'2 3.6
2018-Feb-12 03:00N 33°45' W 118°16'1 1.8
2018-Feb-12 02:30N 33°46' W 118°16'0 0.5
2018-Feb-12 02:00N 33°46' W 118°16'0 0.0
2018-Feb-12 01:30N 33°46' W 118°16'0 0.0
2018-Feb-12 01:00N 33°46' W 118°16'0 0.0
2018-Feb-12 00:30N 33°46' W 118°16'1 2.9
2018-Feb-12 00:00N 33°46' W 118°14'1 1.4
2018-Feb-11 23:30N 33°46' W 118°13'0 0.9
2018-Feb-11 23:00N 33°46' W 118°13'2 4.3
2018-Feb-11 22:30N 33°44' W 118°12'0 0.9
2018-Feb-11 22:00N 33°43' W 118°12'1 1.2
2018-Feb-11 21:30N 33°43' W 118°13'3 5.2
2018-Feb-11 21:00N 33°44' W 118°16'0 0.0
2018-Feb-11 20:30N 33°44' W 118°16'0 0.0
2018-Feb-11 20:00N 33°44' W 118°16'0 0.0
2018-Feb-11 19:30N 33°44' W 118°16'0 0.0
2018-Feb-11 19:00N 33°44' W 118°16'0 0.0
2018-Feb-11 18:30N 33°44' W 118°16'0 0.0
2018-Feb-11 18:00N 33°44' W 118°16'0 0.0
2018-Feb-11 17:30N 33°44' W 118°16'0 0.0
2018-Feb-11 17:00N 33°44' W 118°16'0 0.0
2018-Feb-11 16:30N 33°44' W 118°16'1 1.2
2018-Feb-11 16:00N 33°44' W 118°16'2 4.8
2018-Feb-11 15:30N 33°46' W 118°15'0 0.1
2018-Feb-11 15:00N 33°46' W 118°15'2 3.1
2018-Feb-11 14:30N 33°45' W 118°17'2 3.8
2018-Feb-11 13:53N 33°43' W 118°15'1 3.3
2018-Feb-11 13:30N 33°44' W 118°16'1 1.5
2018-Feb-11 13:00N 33°44' W 118°17'1 2.8
2018-Feb-11 12:30N 33°45' W 118°16'0 0.3
2018-Feb-11 12:00N 33°45' W 118°16'0 0.0
2018-Feb-11 11:30N 33°45' W 118°16'0 0.0
2018-Feb-11 11:00N 33°45' W 118°16'0 0.0
2018-Feb-11 10:30N 33°45' W 118°16'0 0.0
2018-Feb-11 10:00N 33°45' W 118°16'0 0.0
2018-Feb-11 09:30N 33°45' W 118°16'0 0.0
2018-Feb-11 09:00N 33°45' W 118°16'0 0.0
2018-Feb-11 08:30N 33°45' W 118°16'0 0.0
2018-Feb-11 08:00N 33°45' W 118°16'2 3.6
2018-Feb-11 07:29N 33°46' W 118°14'3 3.0
2018-Feb-11 06:24N 33°43' W 118°15'3 6.4
2018-Feb-11 06:00N 33°45' W 118°16'1 1.6
2018-Feb-11 05:30N 33°45' W 118°17'1 2.0
2018-Feb-11 05:00N 33°44' W 118°16'0 0.0
2018-Feb-11 04:29N 33°44' W 118°16'0 0.0
2018-Feb-11 03:57N 33°44' W 118°16'0 0.2
2018-Feb-11 03:30N 33°44' W 118°16'0 0.8
2018-Feb-11 03:00N 33°44' W 118°15'0 0.6
2018-Feb-11 02:30N 33°44' W 118°16'0 0.0
2018-Feb-11 02:00N 33°44' W 118°16'0 0.0
2018-Feb-11 01:30N 33°44' W 118°16'0 0.0
2018-Feb-11 00:59N 33°44' W 118°16'0 0.0
2018-Feb-11 00:30N 33°44' W 118°16'1 1.3
2018-Feb-11 00:00N 33°44' W 118°16'1 2.0
2018-Feb-10 23:30N 33°45' W 118°17'2 3.5
2018-Feb-10 23:01N 33°43' W 118°16'0 1.0
2018-Feb-10 22:30N 33°44' W 118°16'2 4.2
2018-Feb-10 21:59N 33°42' W 118°15'2 4.8
2018-Feb-10 21:30N 33°44' W 118°16'2 3.2
2018-Feb-10 21:00N 33°45' W 118°16'1 2.1
2018-Feb-10 20:30N 33°45' W 118°17'3 5.2
2018-Feb-10 20:00N 33°43' W 118°14'1 1.9
2018-Feb-10 19:30N 33°44' W 118°13'0 0.0
2018-Feb-10 19:00N 33°44' W 118°13'0 0.0
2018-Feb-10 18:29N 33°44' W 118°13'2 4.8
2018-Feb-10 18:01N 33°43' W 118°16'1 1.7
2018-Feb-10 17:28N 33°44' W 118°16'0 0.0
2018-Feb-10 17:00N 33°44' W 118°16'0 0.0
2018-Feb-10 16:30N 33°44' W 118°16'0 0.0
2018-Feb-10 16:00N 33°44' W 118°16'1 1.3
2018-Feb-10 15:30N 33°44' W 118°16'2 4.1
2018-Feb-10 15:00N 33°46' W 118°16'2 3.8
2018-Feb-10 14:30N 33°44' W 118°16'1 1.1
2018-Feb-10 14:00N 33°44' W 118°16'0 0.0
2018-Feb-10 13:30N 33°44' W 118°16'0 0.0
2018-Feb-10 13:00N 33°44' W 118°16'2 4.3
2018-Feb-10 12:30N 33°45' W 118°14'0 0.4
2018-Feb-10 11:59N 33°45' W 118°14'1 1.8
2018-Feb-10 11:30N 33°45' W 118°13'0 0.0
2018-Feb-10 11:00N 33°45' W 118°13'0 0.0
2018-Feb-10 10:30N 33°45' W 118°13'0 0.0
2018-Feb-10 09:55N 33°45' W 118°13'0 0.0
2018-Feb-10 09:26N 33°45' W 118°13'0 0.0
2018-Feb-10 08:45N 33°45' W 118°13'0 0.0
2018-Feb-10 08:10N 33°45' W 118°13'0 0.0
2018-Feb-10 07:58N 33°45' W 118°13'0 0.0
2018-Feb-10 07:27N 33°45' W 118°13'0 0.0
2018-Feb-10 07:00N 33°45' W 118°13'0 0.0
2018-Feb-10 06:29N 33°45' W 118°13'1 1.1
2018-Feb-10 05:59N 33°45' W 118°12'3 5.6
2018-Feb-10 05:27N 33°44' W 118°16'0 0.5
2018-Feb-10 04:59N 33°44' W 118°16'0 0.0
2018-Feb-10 04:30N 33°44' W 118°16'0 0.0
2018-Feb-10 04:00N 33°44' W 118°16'0 0.0
2018-Feb-10 03:30N 33°44' W 118°16'0 0.0
2018-Feb-10 03:00N 33°44' W 118°16'1 1.7
2018-Feb-10 02:30N 33°44' W 118°17'1 2.1
2018-Feb-10 02:00N 33°45' W 118°16'0 0.1
2018-Feb-10 01:30N 33°45' W 118°17'2 4.0
2018-Feb-10 01:00N 33°46' W 118°14'0 0.2
2018-Feb-10 00:30N 33°46' W 118°14'0 0.0
2018-Feb-10 00:00N 33°46' W 118°14'0 0.0
2018-Feb-09 23:30N 33°46' W 118°14'2 8.3
2018-Feb-09 23:15N 33°45' W 118°16'0 0.2
2018-Feb-09 23:00N 33°45' W 118°16'2394.3
2018-Feb-09 23:00N 33°46' W 118°14'0 0.0
2018-Feb-09 22:46N 33°46' W 118°14'312.4
2018-Feb-09 22:30N 33°43' W 118°16'3 6.5
2018-Feb-09 22:00N 33°46' W 118°14'0 0.0
2018-Feb-09 21:30N 33°46' W 118°14'1427.6
2018-Feb-09 21:01N 33°32' W 118°16'1416556.3
2018-Feb-09 21:00N 33°46' W 118°14'1835.2
2018-Feb-09 20:31N 33°29' W 118°17'1835.2
2018-Feb-09 20:00N 33°46' W 118°14'4 1.9
2018-Feb-09 18:00N 33°44' W 118°10'4 4.4
2018-Feb-09 17:00N 33°44' W 118°16'0 0.0
2018-Feb-09 16:30N 33°44' W 118°16'2323.2
2018-Feb-09 15:31N 33°21' W 118°18'2516.5
2018-Feb-09 14:00N 33°46' W 118°17'0 0.0
2018-Feb-09 12:30N 33°46' W 118°17'2 3.6
2018-Feb-09 12:00N 33°44' W 118°16'1 2.3
2018-Feb-09 11:30N 33°45' W 118°16'  
Track history (hours):
 
Tides and Currents Weather Stations Pressure Air Temp Water Temp Dewpoint Dewpoint Depression Visibility Wind Speed Wind Dir Waves Ship Positions

Lela Franco

Owner: Harley Marine Services, Inc, Seattle, WA. More information available from US FCC via Universal Licensing System and Coast Guard Vessel Documentation Center.

Last reported at 2018-Feb-19 11:30 UTC. Time now 2018-Feb-19 11:50 UTC.
Position N 33°44' W 118°17'.

Length 18 m; draft 3 m.

Type: Towing. MMSI: 366926730.

Date/timePositionNaut miles runAvg speedWind from/ knotsBaromVisibWave heightAir tempDewpointWater temp
2018-Feb-19 11:30N 33°44' W 118°17'2 4.8
2018-Feb-19 11:00N 33°43' W 118°14'2 4.8
2018-Feb-19 10:29N 33°44' W 118°12'0 0.0
2018-Feb-19 09:56N 33°44' W 118°12'0 0.0
2018-Feb-19 09:29N 33°44' W 118°12'0 0.0
2018-Feb-19 09:00N 33°44' W 118°12'0 0.0
2018-Feb-19 08:28N 33°44' W 118°12'0 0.0
2018-Feb-19 07:59N 33°44' W 118°12'1 0.9
2018-Feb-19 07:00N 33°45' W 118°13'1 2.1
2018-Feb-19 06:21N 33°43' W 118°13'2 6.6
2018-Feb-19 06:01N 33°43' W 118°15'1 2.0
2018-Feb-19 05:30N 33°44' W 118°16'0 0.0
2018-Feb-19 05:00N 33°44' W 118°16'0 0.0
2018-Feb-19 04:30N 33°44' W 118°16'0 0.0
2018-Feb-19 04:00N 33°44' W 118°16'1 2.1
2018-Feb-19 03:30N 33°43' W 118°15'3 6.4
2018-Feb-19 03:00N 33°46' W 118°13'1 1.6
2018-Feb-19 02:29N 33°46' W 118°13'1 1.7
2018-Feb-19 02:00N 33°46' W 118°13'3 5.1
2018-Feb-19 01:30N 33°43' W 118°11'0 0.5
2018-Feb-19 01:00N 33°44' W 118°12'1 1.2
2018-Feb-19 00:30N 33°44' W 118°12'1 2.1
2018-Feb-19 00:00N 33°45' W 118°13'0 0.0
2018-Feb-18 23:30N 33°45' W 118°13'0 0.4
2018-Feb-18 23:00N 33°45' W 118°13'2 3.2
2018-Feb-18 22:30N 33°43' W 118°14'2 3.7
2018-Feb-18 22:00N 33°44' W 118°16'0 0.0
2018-Feb-18 21:30N 33°44' W 118°16'0 0.0
2018-Feb-18 21:00N 33°44' W 118°16'0 0.4
2018-Feb-18 20:30N 33°44' W 118°16'3 7.0
2018-Feb-18 20:00N 33°44' W 118°12'2 4.1
2018-Feb-18 19:30N 33°44' W 118°09'0 0.1
2018-Feb-18 19:00N 33°44' W 118°09'3 5.6
2018-Feb-18 18:30N 33°45' W 118°12'2 3.7
2018-Feb-18 17:57N 33°43' W 118°14'2 3.9
2018-Feb-18 17:30N 33°44' W 118°16'0 0.0
2018-Feb-18 17:00N 33°44' W 118°16'0 0.0
2018-Feb-18 16:30N 33°44' W 118°16'0 0.2
2018-Feb-18 16:00N 33°44' W 118°16'1 1.5
2018-Feb-18 15:30N 33°43' W 118°16'1 2.3
2018-Feb-18 15:00N 33°43' W 118°14'1 1.5
2018-Feb-18 14:30N 33°43' W 118°14'0 0.0
2018-Feb-18 13:52N 33°43' W 118°14'0 0.1
2018-Feb-18 13:25N 33°43' W 118°14'1 2.9
2018-Feb-18 12:58N 33°44' W 118°13'2 3.7
2018-Feb-18 12:29N 33°46' W 118°14'0 0.1
2018-Feb-18 12:00N 33°46' W 118°14'0 0.0
2018-Feb-18 11:28N 33°46' W 118°14'0 0.0
2018-Feb-18 11:00N 33°46' W 118°14'0 0.0
2018-Feb-18 10:30N 33°46' W 118°14'1 2.8
2018-Feb-18 10:00N 33°45' W 118°13'2 2.2
2018-Feb-18 09:11N 33°44' W 118°11'1 3.1
2018-Feb-18 09:00N 33°44' W 118°12'0 0.0
2018-Feb-18 08:30N 33°44' W 118°12'0 0.0
2018-Feb-18 08:00N 33°44' W 118°12'0 0.0
2018-Feb-18 07:30N 33°44' W 118°12'0 0.0
2018-Feb-18 07:00N 33°44' W 118°12'0 0.0
2018-Feb-18 06:29N 33°44' W 118°12'0 0.0
2018-Feb-18 05:58N 33°44' W 118°12'3 5.5
2018-Feb-18 05:23N 33°43' W 118°15'1 3.1
2018-Feb-18 05:00N 33°44' W 118°16'0 0.0
2018-Feb-18 04:30N 33°44' W 118°16'1 1.5
2018-Feb-18 04:00N 33°43' W 118°16'2 4.6
2018-Feb-18 03:30N 33°46' W 118°16'0 0.0
2018-Feb-18 03:00N 33°46' W 118°16'0 0.1
2018-Feb-18 02:30N 33°45' W 118°16'1 1.1
2018-Feb-18 02:00N 33°45' W 118°16'2 4.9
2018-Feb-18 01:30N 33°43' W 118°15'0 0.6
2018-Feb-18 01:00N 33°43' W 118°15'1 2.8
2018-Feb-18 00:30N 33°44' W 118°16'0 0.0
2018-Feb-18 00:00N 33°44' W 118°16'0 0.0
2018-Feb-17 23:30N 33°44' W 118°16'0 0.0
2018-Feb-17 23:00N 33°44' W 118°16'1 2.0
2018-Feb-17 22:30N 33°45' W 118°17'1 2.0
2018-Feb-17 22:01N 33°46' W 118°16'2 3.6
2018-Feb-17 21:30N 33°46' W 118°14'2 4.6
2018-Feb-17 21:00N 33°44' W 118°13'3 5.2
2018-Feb-17 20:30N 33°43' W 118°16'2 3.8
2018-Feb-17 20:00N 33°45' W 118°17'0 0.0
2018-Feb-17 19:30N 33°45' W 118°17'1 1.9
2018-Feb-17 19:00N 33°44' W 118°16'0 0.0
2018-Feb-17 18:30N 33°44' W 118°16'0 0.0
2018-Feb-17 18:00N 33°44' W 118°16'0 0.1
2018-Feb-17 17:30N 33°44' W 118°16'1 1.2
2018-Feb-17 17:00N 33°44' W 118°16'0 0.0
2018-Feb-17 16:30N 33°44' W 118°16'0 0.0
2018-Feb-17 16:00N 33°44' W 118°16'0 0.0
2018-Feb-17 15:30N 33°44' W 118°16'0 0.0
2018-Feb-17 15:00N 33°44' W 118°16'0 0.0
2018-Feb-17 14:30N 33°44' W 118°16'0 0.0
2018-Feb-17 14:00N 33°44' W 118°16'0 0.0
2018-Feb-17 13:30N 33°44' W 118°16'2 3.1
2018-Feb-17 12:49N 33°44' W 118°13'1 4.2
2018-Feb-17 12:30N 33°46' W 118°13'0 0.8
2018-Feb-17 11:55N 33°46' W 118°13'0 0.4
2018-Feb-17 11:28N 33°46' W 118°13'0 0.0
2018-Feb-17 10:53N 33°46' W 118°13'0 0.0
2018-Feb-17 10:30N 33°46' W 118°13'0 0.0
2018-Feb-17 10:00N 33°46' W 118°13'0 0.0
2018-Feb-17 09:30N 33°46' W 118°13'0 0.0
2018-Feb-17 09:00N 33°46' W 118°13'0 0.0
2018-Feb-17 08:30N 33°46' W 118°13'0 0.0
2018-Feb-17 06:57N 33°46' W 118°13'3 6.4
2018-Feb-17 06:30N 33°45' W 118°16'1 1.6
2018-Feb-17 06:00N 33°44' W 118°17'1 2.0
2018-Feb-17 05:30N 33°44' W 118°16'0 0.1
2018-Feb-17 05:00N 33°44' W 118°16'0 0.0
2018-Feb-17 04:30N 33°44' W 118°16'0 0.0
2018-Feb-17 03:58N 33°44' W 118°16'0 0.0
2018-Feb-17 03:30N 33°44' W 118°16'2 4.2
2018-Feb-17 03:00N 33°46' W 118°16'3 5.0
2018-Feb-17 02:29N 33°43' W 118°16'1 1.3
2018-Feb-17 02:00N 33°44' W 118°16'0 0.0
2018-Feb-17 01:30N 33°44' W 118°16'0 0.0
2018-Feb-17 01:00N 33°44' W 118°16'0 0.0
2018-Feb-17 00:30N 33°44' W 118°16'0 0.0
2018-Feb-17 00:00N 33°44' W 118°16'0 0.0
2018-Feb-16 23:30N 33°44' W 118°16'0 0.0
2018-Feb-16 23:00N 33°44' W 118°16'2 3.4
2018-Feb-16 22:30N 33°43' W 118°14'2 4.6
2018-Feb-16 22:00N 33°45' W 118°12'3 6.2
2018-Feb-16 21:30N 33°43' W 118°15'1 2.2
2018-Feb-16 21:00N 33°44' W 118°16'0 0.0
2018-Feb-16 20:30N 33°44' W 118°16'0 0.0
2018-Feb-16 20:00N 33°44' W 118°16'0 0.0
2018-Feb-16 19:30N 33°44' W 118°16'0 0.0
2018-Feb-16 19:00N 33°44' W 118°16'0 0.0
2018-Feb-16 18:30N 33°44' W 118°16'0 0.0
2018-Feb-16 18:00N 33°44' W 118°16'0 0.0
2018-Feb-16 17:30N 33°44' W 118°16'0 0.0
2018-Feb-16 17:00N 33°44' W 118°16'0 0.0
2018-Feb-16 16:30N 33°44' W 118°16'0 0.0
2018-Feb-16 16:00N 33°44' W 118°16'0 0.0
2018-Feb-16 15:30N 33°44' W 118°16'0 0.0
2018-Feb-16 15:00N 33°44' W 118°16'0 0.4
2018-Feb-16 14:30N 33°44' W 118°16'1 1.4
2018-Feb-16 14:00N 33°44' W 118°15'1 1.5
2018-Feb-16 13:30N 33°44' W 118°16'0 0.7
2018-Feb-16 12:58N 33°44' W 118°15'0 0.6
2018-Feb-16 12:30N 33°44' W 118°16'0 0.0
2018-Feb-16 11:59N 33°44' W 118°16'0 0.0
2018-Feb-16 11:30N 33°44' W 118°16'0 0.0
2018-Feb-16 11:00N 33°44' W 118°16'0 0.6
2018-Feb-16 10:30N 33°44' W 118°16'3 6.3
2018-Feb-16 10:00N 33°44' W 118°12'1 0.9
2018-Feb-16 09:07N 33°44' W 118°12'2 8.9
2018-Feb-16 08:55N 33°43' W 118°14'3 6.3
2018-Feb-16 08:30N 33°45' W 118°17'1 2.5
2018-Feb-16 08:00N 33°46' W 118°15'2 3.5
2018-Feb-16 07:30N 33°44' W 118°16'0 0.0
2018-Feb-16 07:00N 33°44' W 118°16'0 0.0
2018-Feb-16 06:30N 33°44' W 118°16'0 0.0
2018-Feb-16 06:00N 33°44' W 118°16'0 0.0
2018-Feb-16 05:30N 33°44' W 118°16'0 0.0
2018-Feb-16 05:00N 33°44' W 118°16'0 0.0
2018-Feb-16 04:30N 33°44' W 118°16'0 0.0
2018-Feb-16 04:00N 33°44' W 118°16'0 0.0
2018-Feb-16 03:30N 33°44' W 118°16'1 1.3
2018-Feb-16 02:53N 33°43' W 118°17'1 2.0
2018-Feb-16 02:30N 33°44' W 118°16'0 0.1
2018-Feb-16 02:00N 33°44' W 118°16'0 0.0
2018-Feb-16 01:30N 33°44' W 118°16'0 0.0
2018-Feb-16 01:00N 33°44' W 118°16'0 0.4
2018-Feb-16 00:30N 33°44' W 118°16'162.9
2018-Feb-16 00:29N 33°45' W 118°16'3 7.2
2018-Feb-16 00:00N 33°45' W 118°12'36114.5
2018-Feb-16 00:00N 33°43' W 118°16'3 6.6
2018-Feb-15 23:30N 33°45' W 118°12'45321.6
2018-Feb-15 23:30N 33°41' W 118°16'4 8.9
2018-Feb-15 23:00N 33°45' W 118°13'82508.1
2018-Feb-15 23:00N 33°39' W 118°20'611.7
2018-Feb-15 22:30N 33°43' W 118°15'10211.0
2018-Feb-15 22:28N 33°36' W 118°24'1022.1
2018-Feb-15 22:00N 33°44' W 118°16'1576.8
2018-Feb-15 21:49N 33°33' W 118°29'2 7.9
2018-Feb-15 21:30N 33°32' W 118°31'192513.7
2018-Feb-15 21:30N 33°44' W 118°13'1 2.6
2018-Feb-15 21:00N 33°45' W 118°13'2428637.8
2018-Feb-15 21:00N 33°30' W 118°35'2142.0
2018-Feb-15 20:30N 33°43' W 118°15'2320850.7
2018-Feb-15 20:30N 33°27' W 118°36'2346.3
2018-Feb-15 20:00N 33°43' W 118°15'2 4.9
2018-Feb-15 19:30N 33°44' W 118°13'3 5.3
2018-Feb-15 19:00N 33°44' W 118°16'2 3.7
2018-Feb-15 18:30N 33°46' W 118°15'2 3.5
2018-Feb-15 18:00N 33°46' W 118°13'3 6.5
2018-Feb-15 17:30N 33°43' W 118°16'1 1.4
2018-Feb-15 17:00N 33°44' W 118°16'23225.7
2018-Feb-15 16:54N 33°26' W 118°33'2359.2
2018-Feb-15 16:30N 33°44' W 118°16'241008.3
2018-Feb-15 16:29N 33°28' W 118°36'2449.4
2018-Feb-15 16:00N 33°44' W 118°16'2118777.2
2018-Feb-15 16:00N 33°30' W 118°35'2141.8
2018-Feb-15 15:30N 33°44' W 118°16'1 1.8
2018-Feb-15 15:00N 33°43' W 118°16'922.3
2018-Feb-15 14:35N 33°37' W 118°24'13167.0
2018-Feb-15 14:30N 33°45' W 118°13'0 0.1
2018-Feb-15 14:00N 33°45' W 118°13'512.3
2018-Feb-15 13:35N 33°41' W 118°16'1 7.7
2018-Feb-15 13:30N 33°41' W 118°16'4115.5
2018-Feb-15 13:28N 33°44' W 118°12'4 8.4
2018-Feb-15 13:00N 33°43' W 118°16'3407.0
2018-Feb-15 12:59N 33°45' W 118°13'0 0.1
2018-Feb-15 12:30N 33°45' W 118°13'3756.9
2018-Feb-15 12:30N 33°45' W 118°16'3 5.9
2018-Feb-15 12:00N 33°45' W 118°13'0 0.0
2018-Feb-15 11:30N 33°45' W 118°13'0 0.0
2018-Feb-15 11:00N 33°45' W 118°13'0 0.0
2018-Feb-15 10:30N 33°45' W 118°13'0 0.0
2018-Feb-15 10:00N 33°45' W 118°13'1 0.7
2018-Feb-15 09:02N 33°44' W 118°12'1 4.2
2018-Feb-15 08:52N 33°44' W 118°12'0 0.7
2018-Feb-15 08:28N 33°44' W 118°12'3 6.7
2018-Feb-15 08:00N 33°44' W 118°16'2 3.3
2018-Feb-15 07:30N 33°43' W 118°14'2 2.9
2018-Feb-15 06:47N 33°45' W 118°12'3 9.6
2018-Feb-15 06:29N 33°43' W 118°15'1 2.4
2018-Feb-15 06:00N 33°44' W 118°16'0 0.0
2018-Feb-15 05:30N 33°44' W 118°16'0 0.0
2018-Feb-15 05:00N 33°44' W 118°16'0 0.0
2018-Feb-15 04:30N 33°44' W 118°16'0 0.2
2018-Feb-15 04:00N 33°44' W 118°16'0 0.5
2018-Feb-15 03:30N 33°44' W 118°15'0 0.0
2018-Feb-15 03:00N 33°44' W 118°15'0 0.5
2018-Feb-15 02:30N 33°44' W 118°16'0 0.0
2018-Feb-15 02:00N 33°44' W 118°16'0 0.0
2018-Feb-15 01:30N 33°44' W 118°16'2 3.7
2018-Feb-15 01:00N 33°43' W 118°13'2 3.4
2018-Feb-15 00:30N 33°45' W 118°13'3 5.7
2018-Feb-15 00:00N 33°44' W 118°16'0 0.5
2018-Feb-14 23:30N 33°44' W 118°16'0 0.9
2018-Feb-14 23:00N 33°44' W 118°15'1 1.2
2018-Feb-14 22:30N 33°43' W 118°16'2 4.6
2018-Feb-14 22:00N 33°42' W 118°14'3 5.2
2018-Feb-14 21:30N 33°44' W 118°16'0 0.0
2018-Feb-14 21:00N 33°44' W 118°16'0 0.0
2018-Feb-14 20:30N 33°44' W 118°16'0 0.0
2018-Feb-14 20:00N 33°44' W 118°16'0 0.0
2018-Feb-14 19:30N 33°44' W 118°16'0 0.0
2018-Feb-14 19:00N 33°44' W 118°16'0 0.0
2018-Feb-14 18:30N 33°44' W 118°16'0 0.0
2018-Feb-14 18:00N 33°44' W 118°16'0 0.0
2018-Feb-14 17:30N 33°44' W 118°16'1 1.2
2018-Feb-14 17:00N 33°43' W 118°16'3 5.1
2018-Feb-14 16:30N 33°46' W 118°16'0 0.0
2018-Feb-14 16:00N 33°46' W 118°16'0 0.7
2018-Feb-14 15:30N 33°45' W 118°16'2 3.7
2018-Feb-14 15:00N 33°44' W 118°16'3 5.4
2018-Feb-14 14:26N 33°42' W 118°13'1 1.8
2018-Feb-14 13:59N 33°42' W 118°12'2 3.1
2018-Feb-14 13:21N 33°43' W 118°15'2 4.7
2018-Feb-14 12:56N 33°44' W 118°13'2 4.7
2018-Feb-14 12:31N 33°46' W 118°13'0 0.4
2018-Feb-14 12:00N 33°46' W 118°13'0 0.6
2018-Feb-14 11:30N 33°46' W 118°13'1 2.0
2018-Feb-14 11:00N 33°45' W 118°13'0 0.0
2018-Feb-14 10:30N 33°45' W 118°13'0 0.0
2018-Feb-14 10:00N 33°45' W 118°13'0 0.0
2018-Feb-14 09:30N 33°45' W 118°13'0 0.0
2018-Feb-14 09:00N 33°45' W 118°13'0 0.0
2018-Feb-14 08:30N 33°45' W 118°13'0 0.0
2018-Feb-14 08:00N 33°45' W 118°13'1 0.3
2018-Feb-14 06:20N 33°45' W 118°12'3 8.8
2018-Feb-14 06:00N 33°43' W 118°15'1 1.9
2018-Feb-14 05:30N 33°44' W 118°15'0 0.5
2018-Feb-14 05:00N 33°44' W 118°16'0 0.0
2018-Feb-14 04:30N 33°44' W 118°16'0 0.0
2018-Feb-14 04:00N 33°44' W 118°16'1 1.2
2018-Feb-14 03:30N 33°43' W 118°16'3 5.9
2018-Feb-14 03:01N 33°44' W 118°12'0 0.9
2018-Feb-14 02:30N 33°45' W 118°12'1 1.2
2018-Feb-14 01:45N 33°44' W 118°12'0 0.2
2018-Feb-14 01:30N 33°44' W 118°12'0 0.1
2018-Feb-14 01:00N 33°44' W 118°12'0 0.0
2018-Feb-14 00:30N 33°44' W 118°12'1 1.7
2018-Feb-14 00:00N 33°44' W 118°12'3 5.2
2018-Feb-13 23:30N 33°46' W 118°15'2 4.9
2018-Feb-13 23:11N 33°45' W 118°16'1 4.3
2018-Feb-13 23:00N 33°45' W 118°16'1103.8
2018-Feb-13 22:59N 33°45' W 118°16'2 4.2
2018-Feb-13 22:31N 33°43' W 118°16'13242.3
2018-Feb-13 22:30N 33°44' W 118°16'2 3.0
2018-Feb-13 22:00N 33°43' W 118°15'31646.5
2018-Feb-13 22:00N 33°40' W 118°15'4 7.7
2018-Feb-13 21:30N 33°36' W 118°16'87252.3
2018-Feb-13 21:30N 33°44' W 118°16'0 0.0
2018-Feb-13 21:00N 33°44' W 118°16'0 0.0
2018-Feb-13 20:30N 33°44' W 118°16'0 0.0
2018-Feb-13 20:00N 33°44' W 118°16'0 0.0
2018-Feb-13 19:29N 33°44' W 118°16'0 0.0
2018-Feb-13 19:00N 33°44' W 118°16'0 0.0
2018-Feb-13 18:30N 33°44' W 118°16'0 0.0
2018-Feb-13 18:00N 33°44' W 118°16'0 0.0
2018-Feb-13 17:30N 33°44' W 118°16'0 0.0
2018-Feb-13 17:00N 33°44' W 118°16'0 0.5
2018-Feb-13 16:30N 33°44' W 118°15'1 1.2
2018-Feb-13 16:00N 33°43' W 118°16'1 2.8
2018-Feb-13 15:30N 33°45' W 118°16'2 4.6
2018-Feb-13 15:00N 33°43' W 118°15'3 5.5
2018-Feb-13 14:28N 33°45' W 118°12'1 1.8
2018-Feb-13 14:00N 33°44' W 118°12'1 1.2
2018-Feb-13 13:30N 33°44' W 118°12'617.6
2018-Feb-13 13:10N 33°39' W 118°15'530.3
2018-Feb-13 13:00N 33°43' W 118°16'368.8
2018-Feb-13 12:58N 33°40' W 118°15'4 8.2
2018-Feb-13 12:30N 33°44' W 118°15'1691.1
2018-Feb-13 12:30N 33°43' W 118°16'2 3.6
2018-Feb-13 12:00N 33°45' W 118°17'2233.5
2018-Feb-13 12:00N 33°43' W 118°15'3 5.4
2018-Feb-13 11:30N 33°45' W 118°16'047.4
2018-Feb-13 11:30N 33°45' W 118°16'0 0.0
2018-Feb-13 11:00N 33°45' W 118°16'0 0.0
2018-Feb-13 10:30N 33°45' W 118°16'1 1.3
2018-Feb-13 09:59N 33°44' W 118°16'1 1.3
2018-Feb-13 09:30N 33°44' W 118°16'0 0.0
2018-Feb-13 09:00N 33°44' W 118°16'0 0.0
2018-Feb-13 08:30N 33°44' W 118°16'0 0.0
2018-Feb-13 08:00N 33°44' W 118°16'0 0.0
2018-Feb-13 07:30N 33°44' W 118°16'0 0.0
2018-Feb-13 06:56N 33°44' W 118°16'0 0.0
2018-Feb-13 06:30N 33°44' W 118°16'0 0.0
2018-Feb-13 06:00N 33°44' W 118°16'0 0.0
2018-Feb-13 05:29N 33°44' W 118°16'0 0.0
2018-Feb-13 05:00N 33°44' W 118°16'0 0.0
2018-Feb-13 04:30N 33°44' W 118°16'0 0.0
2018-Feb-13 04:01N 33°44' W 118°16'1 1.1
2018-Feb-13 03:30N 33°44' W 118°16'2 4.6
2018-Feb-13 03:00N 33°43' W 118°14'0 0.1
2018-Feb-13 02:15N 33°43' W 118°14'0 0.9
2018-Feb-13 01:57N 33°44' W 118°13'2 3.4
2018-Feb-13 01:30N 33°45' W 118°13'2 4.4
2018-Feb-13 01:00N 33°44' W 118°10'0 0.0
2018-Feb-13 00:30N 33°44' W 118°10'1 2.5
2018-Feb-13 00:00N 33°44' W 118°12'0 0.0
2018-Feb-12 23:30N 33°44' W 118°12'0 0.0
2018-Feb-12 23:00N 33°44' W 118°12'0 0.0
2018-Feb-12 22:30N 33°44' W 118°12'0 0.5
2018-Feb-12 22:00N 33°44' W 118°11'0 0.1
2018-Feb-12 21:30N 33°44' W 118°11'0 0.0
2018-Feb-12 21:00N 33°44' W 118°11'2 4.1
2018-Feb-12 20:30N 33°45' W 118°14'1 1.2
2018-Feb-12 20:00N 33°45' W 118°14'1 2.6
2018-Feb-12 19:30N 33°44' W 118°13'3 5.3
2018-Feb-12 19:00N 33°44' W 118°16'2 4.4
2018-Feb-12 18:30N 33°46' W 118°16'3 5.2
2018-Feb-12 18:00N 33°43' W 118°16'1 1.1
2018-Feb-12 17:30N 33°44' W 118°16'0 0.0
2018-Feb-12 17:00N 33°44' W 118°16'0 0.0
2018-Feb-12 16:30N 33°44' W 118°16'0 0.0
2018-Feb-12 16:00N 33°44' W 118°16'1 2.0
2018-Feb-12 15:30N 33°43' W 118°15'4 7.3
2018-Feb-12 15:00N 33°46' W 118°13'0 0.1
2018-Feb-12 14:30N 33°46' W 118°13'2 3.2
2018-Feb-12 13:59N 33°44' W 118°13'1 2.1
2018-Feb-12 13:30N 33°43' W 118°13'3 5.4
2018-Feb-12 13:00N 33°44' W 118°16'0 0.0
2018-Feb-12 12:30N 33°44' W 118°16'0 0.0
2018-Feb-12 12:00N 33°44' W 118°16'0 0.0
2018-Feb-12 11:30N 33°44' W 118°16'0 0.0
2018-Feb-12 11:00N 33°44' W 118°16'0 0.0
2018-Feb-12 10:30N 33°44' W 118°16'0 0.0
2018-Feb-12 10:00N 33°44' W 118°16'0 0.0
2018-Feb-12 09:30N 33°44' W 118°16'0 0.0
2018-Feb-12 09:00N 33°44' W 118°16'0 0.0
2018-Feb-12 08:30N 33°44' W 118°16'0 0.0
2018-Feb-12 08:00N 33°44' W 118°16'0 0.4
2018-Feb-12 07:30N 33°44' W 118°16'1 2.5
2018-Feb-12 06:58N 33°43' W 118°14'1 3.3
2018-Feb-12 06:30N 33°44' W 118°16'0 0.0
2018-Feb-12 06:00N 33°44' W 118°16'0 0.0
2018-Feb-12 05:30N 33°44' W 118°16'0 0.0
2018-Feb-12 05:00N 33°44' W 118°16'0 0.0
2018-Feb-12 04:30N 33°44' W 118°16'0 0.0
2018-Feb-12 04:00N 33°44' W 118°16'0 0.6
2018-Feb-12 03:30N 33°44' W 118°16'2 3.6
2018-Feb-12 03:00N 33°45' W 118°16'1 1.8
2018-Feb-12 02:30N 33°46' W 118°16'0 0.5
2018-Feb-12 02:00N 33°46' W 118°16'0 0.0
2018-Feb-12 01:30N 33°46' W 118°16'0 0.0
2018-Feb-12 01:00N 33°46' W 118°16'0 0.0
2018-Feb-12 00:30N 33°46' W 118°16'1 2.9
2018-Feb-12 00:00N 33°46' W 118°14'1 1.4
2018-Feb-11 23:30N 33°46' W 118°13'0 0.9
2018-Feb-11 23:00N 33°46' W 118°13'2 4.3
2018-Feb-11 22:30N 33°44' W 118°12'0 0.9
2018-Feb-11 22:00N 33°43' W 118°12'1 1.2
2018-Feb-11 21:30N 33°43' W 118°13'3 5.2
2018-Feb-11 21:00N 33°44' W 118°16'0 0.0
2018-Feb-11 20:30N 33°44' W 118°16'0 0.0
2018-Feb-11 20:00N 33°44' W 118°16'0 0.0
2018-Feb-11 19:30N 33°44' W 118°16'0 0.0
2018-Feb-11 19:00N 33°44' W 118°16'0 0.0
2018-Feb-11 18:30N 33°44' W 118°16'0 0.0
2018-Feb-11 18:00N 33°44' W 118°16'0 0.0
2018-Feb-11 17:30N 33°44' W 118°16'0 0.0
2018-Feb-11 17:00N 33°44' W 118°16'0 0.0
2018-Feb-11 16:30N 33°44' W 118°16'1 1.2
2018-Feb-11 16:00N 33°44' W 118°16'2 4.8
2018-Feb-11 15:30N 33°46' W 118°15'0 0.1
2018-Feb-11 15:00N 33°46' W 118°15'2 3.1
2018-Feb-11 14:30N 33°45' W 118°17'2 3.8
2018-Feb-11 13:53N 33°43' W 118°15'1 3.3
2018-Feb-11 13:30N 33°44' W 118°16'1 1.5
2018-Feb-11 13:00N 33°44' W 118°17'1 2.8
2018-Feb-11 12:30N 33°45' W 118°16'0 0.3
2018-Feb-11 12:00N 33°45' W 118°16'0 0.0
2018-Feb-11 11:30N 33°45' W 118°16'0 0.0
2018-Feb-11 11:00N 33°45' W 118°16'0 0.0
2018-Feb-11 10:30N 33°45' W 118°16'0 0.0
2018-Feb-11 10:00N 33°45' W 118°16'0 0.0
2018-Feb-11 09:30N 33°45' W 118°16'0 0.0
2018-Feb-11 09:00N 33°45' W 118°16'0 0.0
2018-Feb-11 08:30N 33°45' W 118°16'0 0.0
2018-Feb-11 08:00N 33°45' W 118°16'2 3.6
2018-Feb-11 07:29N 33°46' W 118°14'3 3.0
2018-Feb-11 06:24N 33°43' W 118°15'3 6.4
2018-Feb-11 06:00N 33°45' W 118°16'1 1.6
2018-Feb-11 05:30N 33°45' W 118°17'1 2.0
2018-Feb-11 05:00N 33°44' W 118°16'0 0.0
2018-Feb-11 04:29N 33°44' W 118°16'0 0.0
2018-Feb-11 03:57N 33°44' W 118°16'0 0.2
2018-Feb-11 03:30N 33°44' W 118°16'0 0.8
2018-Feb-11 03:00N 33°44' W 118°15'0 0.6
2018-Feb-11 02:30N 33°44' W 118°16'0 0.0
2018-Feb-11 02:00N 33°44' W 118°16'0 0.0
2018-Feb-11 01:30N 33°44' W 118°16'0 0.0
2018-Feb-11 00:59N 33°44' W 118°16'0 0.0
2018-Feb-11 00:30N 33°44' W 118°16'1 1.3
2018-Feb-11 00:00N 33°44' W 118°16'1 2.0
2018-Feb-10 23:30N 33°45' W 118°17'2 3.5
2018-Feb-10 23:01N 33°43' W 118°16'0 1.0
2018-Feb-10 22:30N 33°44' W 118°16'2 4.2
2018-Feb-10 21:59N 33°42' W 118°15'2 4.8
2018-Feb-10 21:30N 33°44' W 118°16'2 3.2
2018-Feb-10 21:00N 33°45' W 118°16'1 2.1
2018-Feb-10 20:30N 33°45' W 118°17'3 5.2
2018-Feb-10 20:00N 33°43' W 118°14'1 1.9
2018-Feb-10 19:30N 33°44' W 118°13'0 0.0
2018-Feb-10 19:00N 33°44' W 118°13'0 0.0
2018-Feb-10 18:29N 33°44' W 118°13'2 4.8
2018-Feb-10 18:01N 33°43' W 118°16'1 1.7
2018-Feb-10 17:28N 33°44' W 118°16'0 0.0
2018-Feb-10 17:00N 33°44' W 118°16'0 0.0
2018-Feb-10 16:30N 33°44' W 118°16'0 0.0
2018-Feb-10 16:00N 33°44' W 118°16'1 1.3
2018-Feb-10 15:30N 33°44' W 118°16'2 4.1
2018-Feb-10 15:00N 33°46' W 118°16'2 3.8
2018-Feb-10 14:30N 33°44' W 118°16'1 1.1
2018-Feb-10 14:00N 33°44' W 118°16'0 0.0
2018-Feb-10 13:30N 33°44' W 118°16'0 0.0
2018-Feb-10 13:00N 33°44' W 118°16'2 4.3
2018-Feb-10 12:30N 33°45' W 118°14'0 0.4
2018-Feb-10 11:59N 33°45' W 118°14'1 1.8
2018-Feb-10 11:30N 33°45' W 118°13'0 0.0
2018-Feb-10 11:00N 33°45' W 118°13'0 0.0
2018-Feb-10 10:30N 33°45' W 118°13'0 0.0
2018-Feb-10 09:55N 33°45' W 118°13'0 0.0
2018-Feb-10 09:26N 33°45' W 118°13'0 0.0
2018-Feb-10 08:45N 33°45' W 118°13'0 0.0
2018-Feb-10 08:10N 33°45' W 118°13'0 0.0
2018-Feb-10 07:58N 33°45' W 118°13'0 0.0
2018-Feb-10 07:27N 33°45' W 118°13'0 0.0
2018-Feb-10 07:00N 33°45' W 118°13'0 0.0
2018-Feb-10 06:29N 33°45' W 118°13'1 1.1
2018-Feb-10 05:59N 33°45' W 118°12'3 5.6
2018-Feb-10 05:27N 33°44' W 118°16'0 0.5
2018-Feb-10 04:59N 33°44' W 118°16'0 0.0
2018-Feb-10 04:30N 33°44' W 118°16'0 0.0
2018-Feb-10 04:00N 33°44' W 118°16'0 0.0
2018-Feb-10 03:30N 33°44' W 118°16'0 0.0
2018-Feb-10 03:00N 33°44' W 118°16'1 1.7
2018-Feb-10 02:30N 33°44' W 118°17'1 2.1
2018-Feb-10 02:00N 33°45' W 118°16'0 0.1
2018-Feb-10 01:30N 33°45' W 118°17'2 4.0
2018-Feb-10 01:00N 33°46' W 118°14'0 0.2
2018-Feb-10 00:30N 33°46' W 118°14'0 0.0
2018-Feb-10 00:00N 33°46' W 118°14'0 0.0
2018-Feb-09 23:30N 33°46' W 118°14'2 8.3
2018-Feb-09 23:15N 33°45' W 118°16'0 0.2
2018-Feb-09 23:00N 33°45' W 118°16'2394.3
2018-Feb-09 23:00N 33°46' W 118°14'0 0.0
2018-Feb-09 22:46N 33°46' W 118°14'312.4
2018-Feb-09 22:30N 33°43' W 118°16'3 6.5
2018-Feb-09 22:00N 33°46' W 118°14'0 0.0
2018-Feb-09 21:30N 33°46' W 118°14'1427.6
2018-Feb-09 21:01N 33°32' W 118°16'1416556.3
2018-Feb-09 21:00N 33°46' W 118°14'1835.2
2018-Feb-09 20:31N 33°29' W 118°17'1835.2
2018-Feb-09 20:00N 33°46' W 118°14'4 1.9
2018-Feb-09 18:00N 33°44' W 118°10'4 4.4
2018-Feb-09 17:00N 33°44' W 118°16'0 0.0
2018-Feb-09 16:30N 33°44' W 118°16'2323.2
2018-Feb-09 15:31N 33°21' W 118°18'2516.5
2018-Feb-09 14:00N 33°46' W 118°17'0 0.0
2018-Feb-09 12:30N 33°46' W 118°17'2 3.6
2018-Feb-09 12:00N 33°44' W 118°16'1 2.3
2018-Feb-09 11:30N 33°45' W 118°16'  

Dump ship's entire track history